createdAt,value
2023-02-09T00:00:50.227Z,12.2
2023-02-09T00:06:39.290Z,12.8
2023-02-09T00:12:29.150Z,12.6
2023-02-09T00:18:18.330Z,14.4
2023-02-09T00:24:08.070Z,14.7
2023-02-09T00:29:58.060Z,15.4
2023-02-09T00:35:47.694Z,14.4
2023-02-09T00:41:37.476Z,14.5
2023-02-09T00:47:27.361Z,13.7
2023-02-09T00:53:17.488Z,14.6
2023-02-09T00:59:06.204Z,14.4
2023-02-09T01:04:56.198Z,14.4
2023-02-09T01:10:49.393Z,14.9
2023-02-09T01:16:39.964Z,15.4
2023-02-09T01:22:30.003Z,15.5
2023-02-09T01:28:21.254Z,16
2023-02-09T01:34:11.336Z,16
2023-02-09T01:40:01.198Z,16.1
2023-02-09T01:45:52.226Z,16.3
2023-02-09T01:51:44.480Z,16.4
2023-02-09T01:57:34.861Z,16.5
2023-02-09T02:03:25.213Z,16.7
2023-02-09T02:09:15.464Z,16.3
2023-02-09T02:15:05.800Z,17
2023-02-09T02:20:58.282Z,17
2023-02-09T02:26:48.549Z,16.8
2023-02-09T02:32:38.250Z,17.6
2023-02-09T02:38:28.901Z,17.7
2023-02-09T02:44:19.965Z,17.7
2023-02-09T02:50:12.592Z,18
2023-02-09T02:56:02.094Z,18
2023-02-09T03:01:52.858Z,18.2
2023-02-09T03:07:44.193Z,18.7
2023-02-09T03:13:34.741Z,19.5
2023-02-09T03:19:24.531Z,19.9
2023-02-09T03:25:14.627Z,19.3
2023-02-09T03:31:07.872Z,19.8
2023-02-09T03:36:59.653Z,20.3
2023-02-09T03:42:50.483Z,19.5
2023-02-09T03:48:40.406Z,19.1
2023-02-09T03:54:30.938Z,20.1
2023-02-09T04:00:21.826Z,19.9
2023-02-09T04:06:13.747Z,20
2023-02-09T04:12:03.997Z,20.9
2023-02-09T04:17:57.345Z,19.1
2023-02-09T04:23:47.268Z,18.6
2023-02-09T04:29:38.682Z,19.5
2023-02-09T04:35:28.219Z,19.5
2023-02-09T04:41:18.172Z,20.2
2023-02-09T04:47:07.940Z,20
2023-02-09T04:52:58.992Z,19.7
2023-02-09T04:58:50.292Z,21.6
2023-02-09T05:04:40.739Z,20.8
2023-02-09T05:10:34.668Z,20.7
2023-02-09T05:16:28.034Z,21.4
2023-02-09T05:22:17.885Z,21.6
2023-02-09T05:28:08.491Z,22
2023-02-09T05:34:01.135Z,21.9
2023-02-09T05:39:51.015Z,22.1
2023-02-09T05:45:42.469Z,21.4
2023-02-09T05:51:32.636Z,23.2
2023-02-09T05:57:22.765Z,22.3
2023-02-09T06:03:13.712Z,22.9
2023-02-09T06:09:04.597Z,22.8
2023-02-09T06:14:57.249Z,22.8
2023-02-09T06:20:50.032Z,22.8
2023-02-09T06:26:40.249Z,22.4
2023-02-09T06:32:30.956Z,23.3
2023-02-09T06:38:21.800Z,23.2
2023-02-09T06:44:12.805Z,23.7
2023-02-09T06:50:03.199Z,23.2
2023-02-09T06:55:53.823Z,24
2023-02-09T07:01:44.576Z,22.8
2023-02-09T07:07:35.696Z,23.6
2023-02-09T07:13:26.767Z,23.8
2023-02-09T07:19:17.309Z,24.2
2023-02-09T07:25:07.575Z,23.9
2023-02-09T07:30:59.593Z,23.3
2023-02-09T07:36:53.292Z,24.6
2023-02-09T07:42:43.196Z,25.2
2023-02-09T07:48:34.041Z,25.3
2023-02-09T07:54:24.400Z,24.7
2023-02-09T08:00:14.927Z,24.7
2023-02-09T08:06:05.946Z,24.4
2023-02-09T08:11:56.774Z,24.8
2023-02-09T08:17:47.424Z,25
2023-02-09T08:23:40.690Z,25
2023-02-09T08:29:31.112Z,24.8
2023-02-09T08:35:22.046Z,25.2
2023-02-09T08:41:12.897Z,25.2
2023-02-09T08:47:05.812Z,25.2
2023-02-09T08:52:56.958Z,25
2023-02-09T08:58:47.247Z,25.2
2023-02-09T09:04:37.773Z,25.3
2023-02-09T09:10:28.643Z,25.7
2023-02-09T09:16:19.735Z,26
2023-02-09T09:22:08.808Z,25.7
2023-02-09T09:27:59.381Z,26.1
2023-02-09T09:33:49.862Z,25.8
2023-02-09T09:39:40.446Z,25.7
2023-02-09T09:45:30.909Z,24.9
2023-02-09T09:51:21.225Z,24.1
2023-02-09T09:57:10.388Z,24.9
2023-02-09T10:03:00.927Z,25.8
2023-02-09T10:08:52.670Z,23.9
2023-02-09T10:14:45.661Z,26.1
2023-02-09T10:20:38.216Z,25.1
2023-02-09T10:26:28.273Z,24
2023-02-09T10:32:18.763Z,24.7
2023-02-09T10:38:08.976Z,24.3
2023-02-09T10:44:01.412Z,24.3
2023-02-09T10:49:54.687Z,23.8
2023-02-09T10:55:45.462Z,23.8
2023-02-09T11:01:36.264Z,23.6
2023-02-09T11:07:26.213Z,23.8
2023-02-09T11:13:17.431Z,23.5
2023-02-09T11:19:14.350Z,23.4
2023-02-09T11:25:04.129Z,23.3
2023-02-09T11:30:56.488Z,24.1
2023-02-09T11:36:48.509Z,24.1
2023-02-09T11:42:39.318Z,23.1
2023-02-09T11:48:30.310Z,23.1
2023-02-09T11:54:20.769Z,23.6
2023-02-09T12:00:11.396Z,22.1
2023-02-09T12:06:02.191Z,22.5
2023-02-09T12:11:53.383Z,20.1
2023-02-09T12:17:43.892Z,18.7
2023-02-09T12:23:35.890Z,19.1
2023-02-09T12:29:26.562Z,16.6
2023-02-09T12:35:16.576Z,17.8
2023-02-09T12:41:07.691Z,15.9
2023-02-09T12:46:58.144Z,15.7
2023-02-09T12:52:47.836Z,15.6
2023-02-09T12:58:38.379Z,15
2023-02-09T13:04:28.817Z,15.8
2023-02-09T13:10:19.323Z,15.1
2023-02-09T13:16:13.157Z,14
2023-02-09T13:22:03.178Z,15.4
2023-02-09T13:27:53.539Z,13.3
2023-02-09T13:33:45.765Z,12.8
2023-02-09T13:39:35.684Z,14.6
2023-02-09T13:45:27.618Z,14
2023-02-09T13:51:20.168Z,13.2
2023-02-09T13:57:10.901Z,14.4
2023-02-09T14:03:01.300Z,13.8
2023-02-09T14:08:52.983Z,14.6
2023-02-09T14:14:44.582Z,14.4
2023-02-09T14:20:34.931Z,13.3
2023-02-09T14:26:25.409Z,14.2
2023-02-09T14:32:32.841Z,14.2
2023-02-09T14:38:23.847Z,12.1
2023-02-09T14:44:14.697Z,15.6
2023-02-09T14:50:06.259Z,17
2023-02-09T14:57:05.256Z,17
2023-02-09T15:02:55.801Z,16.6
2023-02-09T15:08:46.015Z,15.4
2023-02-09T15:14:37.529Z,14.7
2023-02-09T15:20:28.760Z,14.2
2023-02-09T15:26:19.368Z,13.8
2023-02-09T15:32:09.976Z,12.5
2023-02-09T15:38:01.085Z,15.3
2023-02-09T15:43:51.278Z,16.8
2023-02-09T15:49:41.452Z,18.1
2023-02-09T15:55:31.813Z,20.2
2023-02-09T16:01:21.837Z,19.8
2023-02-09T16:07:13.111Z,21.7
2023-02-09T16:13:03.438Z,22.4
2023-02-09T16:18:52.042Z,22.7
2023-02-09T16:24:42.253Z,23
2023-02-09T16:30:32.673Z,26.1
2023-02-09T16:36:23.810Z,26
2023-02-09T16:42:13.814Z,25.3
2023-02-09T16:48:05.537Z,28
2023-02-09T16:53:55.287Z,27
2023-02-09T16:59:45.567Z,27
2023-02-09T17:05:36.628Z,30
2023-02-09T17:11:27.663Z,30.5
2023-02-09T17:17:21.906Z,28.4
2023-02-09T17:23:10.919Z,30.3
2023-02-09T17:29:01.680Z,31.8
2023-02-09T17:34:52.074Z,34.5
2023-02-09T17:40:43.708Z,49.9
2023-02-09T17:46:34.717Z,48.6
2023-02-09T17:52:24.771Z,37.4
2023-02-09T17:58:15.308Z,37.5
2023-02-09T18:04:05.642Z,37.8
2023-02-09T18:09:56.227Z,36.5
2023-02-09T18:15:43.848Z,33.6
2023-02-09T18:21:34.554Z,32.9
2023-02-09T18:27:24.186Z,38.3
2023-02-09T18:33:15.516Z,36.8
2023-02-09T18:39:07.443Z,35.1
2023-02-09T18:44:57.695Z,38.2
2023-02-09T18:50:48.349Z,35.1
2023-02-09T18:56:37.862Z,37
2023-02-09T19:02:27.286Z,38.2
2023-02-09T19:08:18.637Z,38.9
2023-02-09T19:14:08.691Z,33
2023-02-09T19:19:58.885Z,31.7
2023-02-09T19:25:49.913Z,32.3
2023-02-09T19:31:39.987Z,35.3
2023-02-09T19:37:30.588Z,34.9
2023-02-09T19:43:21.889Z,32.8
2023-02-09T19:49:12.338Z,29.2
2023-02-09T19:55:04.427Z,31.7
2023-02-09T20:00:54.430Z,31.8
2023-02-09T20:06:44.393Z,28.3
2023-02-09T20:12:33.328Z,28.4
2023-02-09T20:18:25.511Z,29.3
2023-02-09T20:24:15.597Z,31.8
2023-02-09T20:30:04.682Z,30.5
2023-02-09T20:35:56.410Z,34.7
2023-02-09T20:41:47.034Z,34.5
2023-02-09T20:47:36.461Z,33.4
2023-02-09T20:53:26.582Z,34.2
2023-02-09T20:59:16.834Z,33.6
2023-02-09T21:05:07.768Z,36.8
2023-02-09T21:10:58.885Z,39.5
2023-02-09T21:16:49.257Z,40.7
2023-02-09T21:22:40.460Z,38.1
2023-02-09T21:28:31.757Z,36.4
2023-02-09T21:34:21.844Z,37.3
2023-02-09T21:40:12.853Z,37.8
2023-02-09T21:46:03.217Z,36.7
2023-02-09T21:51:53.094Z,36.9
2023-02-09T21:57:43.753Z,36.8
2023-02-09T22:03:33.801Z,36.7
2023-02-09T22:09:25.245Z,37.6
2023-02-09T22:15:16.973Z,37
2023-02-09T22:21:06.689Z,36.9
2023-02-09T22:26:56.985Z,36.1
2023-02-09T22:32:45.658Z,36.2
2023-02-09T22:38:35.572Z,37.1
2023-02-09T22:44:28.792Z,39
2023-02-09T22:50:18.782Z,37.4
2023-02-09T22:56:09.589Z,36.9
2023-02-09T23:03:12.161Z,37.4
2023-02-09T23:08:58.545Z,38
2023-02-09T23:14:48.165Z,36.9
2023-02-09T23:20:38.530Z,38.1
2023-02-09T23:26:27.345Z,36.3
2023-02-09T23:32:16.204Z,38.5
2023-02-09T23:38:05.367Z,35
2023-02-09T23:43:56.129Z,37.9
2023-02-09T23:49:48.068Z,36.9
2023-02-09T23:55:39.289Z,36.3
